Time;durP1;ratioP1;P1;durP2;ratioP2;P2;SDS_P1;SDS_P2;PMS_P1;PMS_P2;Temp;Humidity;BMP_temperature;BMP_pressure;BME280_temperature;BME280_humidity;BME280_pressure;Samples;Min_cycle;Max_cycle;Signal;HPM_P1;HPM_P2
2023/12/14 00:01:11;;;;;;;0.45;0.45;;;6.30;99.90;;;;;;5051676;28;20054;-69
2023/12/14 00:03:36;;;;;;;0.05;0.05;;;6.30;99.90;;;;;;5040041;28;20052;-69
2023/12/14 00:06:02;;;;;;;0.20;0.20;;;6.30;99.90;;;;;;5043326;28;20043;-69
2023/12/14 00:08:28;;;;;;;0.10;0.10;;;6.30;99.90;;;;;;5040771;28;20049;-69
2023/12/14 00:10:53;;;;;;;0.80;0.80;;;6.30;99.90;;;;;;5041184;28;20045;-69
2023/12/14 00:13:19;;;;;;;0.10;0.10;;;6.30;99.90;;;;;;5047460;28;20090;-69
2023/12/14 00:15:44;;;;;;;0.10;0.10;;;6.30;99.90;;;;;;5042765;28;20052;-69
2023/12/14 00:18:10;;;;;;;0.10;0.10;;;6.30;99.90;;;;;;5034308;28;20053;-69
2023/12/14 00:20:35;;;;;;;9.10;1.30;;;6.30;99.90;;;;;;5044029;28;20049;-69
2023/12/14 00:23:01;;;;;;;0.20;0.20;;;6.30;99.90;;;;;;5042993;28;20033;-69
2023/12/14 00:25:27;;;;;;;0.50;0.50;;;6.30;99.90;;;;;;5033581;28;20042;-69
2023/12/14 00:27:52;;;;;;;0.10;0.10;;;6.30;99.90;;;;;;5038533;28;20045;-69
2023/12/14 00:30:18;;;;;;;0.10;0.10;;;6.20;99.90;;;;;;5041783;28;20041;-69
2023/12/14 00:32:43;;;;;;;0.38;0.38;;;6.20;99.90;;;;;;5039314;28;20172;-69
2023/12/14 00:35:09;;;;;;;0.20;0.20;;;6.20;99.90;;;;;;5035713;28;20040;-69
2023/12/14 00:37:34;;;;;;;0.10;0.10;;;6.20;99.90;;;;;;5045127;28;20045;-69
2023/12/14 00:40:00;;;;;;;1.00;0.90;;;6.20;99.90;;;;;;5046551;28;20132;-68
2023/12/14 00:42:25;;;;;;;0.20;0.20;;;6.20;99.90;;;;;;5040420;28;20033;-69
2023/12/14 00:44:51;;;;;;;0.10;0.10;;;6.20;99.90;;;;;;5041810;28;20041;-69
2023/12/14 00:47:16;;;;;;;0.00;0.00;;;6.20;99.90;;;;;;5043293;28;20484;-69
2023/12/14 00:49:42;;;;;;;0.08;0.08;;;6.20;99.90;;;;;;5046849;28;20373;-69
2023/12/14 00:52:07;;;;;;;0.45;0.45;;;6.20;99.90;;;;;;5031400;28;20136;-69
2023/12/14 00:54:33;;;;;;;0.70;0.70;;;6.20;99.90;;;;;;5039015;28;20045;-69
2023/12/14 00:56:59;;;;;;;1.23;1.17;;;6.10;99.90;;;;;;5045867;28;20044;-69
2023/12/14 00:59:24;;;;;;;0.10;0.10;;;6.20;99.90;;;;;;5040042;28;20037;-69
2023/12/14 01:01:50;;;;;;;3.10;1.15;;;6.10;99.90;;;;;;5043398;28;20076;-69
2023/12/14 01:04:15;;;;;;;0.80;0.80;;;6.20;99.90;;;;;;5047501;28;20047;-69
2023/12/14 01:06:41;;;;;;;1.00;1.00;;;6.20;99.90;;;;;;5031918;28;20052;-69
2023/12/14 01:09:08;;;;;;;0.10;0.10;;;6.20;99.90;;;;;;5041414;28;20179;-69
2023/12/14 01:11:33;;;;;;;0.10;0.10;;;6.20;99.90;;;;;;5047624;28;20154;-69
2023/12/14 01:13:59;;;;;;;0.55;0.55;;;6.10;99.90;;;;;;5042768;28;20037;-69
2023/12/14 01:16:27;;;;;;;0.10;0.10;;;6.10;99.90;;;;;;5035918;28;20063;-69
2023/12/14 01:18:52;;;;;;;0.40;0.40;;;6.10;99.90;;;;;;5051090;28;20048;-69
2023/12/14 01:21:18;;;;;;;0.25;0.25;;;6.10;99.90;;;;;;5042205;28;20052;-69
2023/12/14 01:23:44;;;;;;;0.10;0.10;;;6.10;99.90;;;;;;5048364;28;20060;-69
2023/12/14 01:26:09;;;;;;;0.65;0.65;;;6.10;99.90;;;;;;5044097;28;20036;-69
2023/12/14 01:28:35;;;;;;;0.15;0.15;;;6.10;99.90;;;;;;5050904;28;20041;-69
2023/12/14 01:31:00;;;;;;;0.30;0.30;;;6.10;99.90;;;;;;5048542;28;20048;-69
2023/12/14 01:33:26;;;;;;;0.68;0.68;;;6.10;99.90;;;;;;5039786;28;20071;-69
2023/12/14 01:35:51;;;;;;;0.10;0.10;;;6.00;99.90;;;;;;5048196;28;20041;-69
2023/12/14 01:38:17;;;;;;;1.75;1.65;;;6.10;99.90;;;;;;5066218;28;20109;-69
2023/12/14 01:40:42;;;;;;;0.50;0.50;;;6.10;99.90;;;;;;5042225;28;20057;-69
2023/12/14 01:43:10;;;;;;;0.10;0.10;;;6.10;99.90;;;;;;5044246;28;20046;-69
2023/12/14 01:45:37;;;;;;;0.10;0.10;;;6.10;99.90;;;;;;5042751;28;20041;-69
2023/12/14 01:48:03;;;;;;;0.10;0.10;;;6.10;99.90;;;;;;5038139;28;20041;-69
2023/12/14 01:50:28;;;;;;;0.10;0.10;;;6.10;99.90;;;;;;5043728;28;20472;-69
2023/12/14 01:52:54;;;;;;;0.10;0.10;;;6.00;99.90;;;;;;5042665;28;20048;-69
2023/12/14 01:55:20;;;;;;;1.88;1.13;;;6.10;99.90;;;;;;5042183;28;20403;-69
2023/12/14 01:57:45;;;;;;;0.10;0.10;;;6.10;99.90;;;;;;5042512;28;20044;-69
2023/12/14 02:00:34;;;;;;;3.33;1.25;;;6.10;99.90;;;;;;5048075;28;20056;-69
2023/12/14 02:03:00;;;;;;;0.10;0.10;;;6.10;99.90;;;;;;5040898;28;20102;-69
2023/12/14 02:05:25;;;;;;;0.10;0.10;;;6.10;99.90;;;;;;5048790;28;20060;-69
2023/12/14 02:07:51;;;;;;;4.68;0.95;;;6.10;99.90;;;;;;5039858;28;20048;-69
2023/12/14 02:10:16;;;;;;;0.10;0.10;;;6.10;99.90;;;;;;5045718;28;20048;-69
2023/12/14 02:12:42;;;;;;;3.97;2.35;;;6.10;99.90;;;;;;5046145;28;20052;-69
2023/12/14 02:15:08;;;;;;;0.17;0.17;;;6.10;99.90;;;;;;5043909;28;20199;-69
2023/12/14 02:17:34;;;;;;;0.55;0.55;;;6.10;99.90;;;;;;5040226;28;20049;-69
2023/12/14 02:20:00;;;;;;;0.10;0.10;;;6.10;99.90;;;;;;5036805;28;20404;-69
2023/12/14 02:22:26;;;;;;;0.10;0.10;;;6.10;99.90;;;;;;5038651;28;20046;-69
2023/12/14 02:24:52;;;;;;;0.10;0.10;;;6.10;99.90;;;;;;5044057;28;20554;-68
2023/12/14 02:27:17;;;;;;;0.10;0.10;;;6.10;99.90;;;;;;5041943;28;20045;-69
2023/12/14 02:29:43;;;;;;;0.10;0.10;;;6.10;99.90;;;;;;5043208;28;20048;-69
2023/12/14 02:32:08;;;;;;;0.40;0.40;;;6.10;99.90;;;;;;5038500;28;20052;-69
2023/12/14 02:34:34;;;;;;;0.35;0.35;;;6.10;99.90;;;;;;5039408;28;20056;-69
2023/12/14 02:36:59;;;;;;;0.17;0.17;;;6.10;99.90;;;;;;5040989;28;20051;-69
2023/12/14 02:39:25;;;;;;;0.10;0.10;;;6.10;99.90;;;;;;5038797;28;20044;-69
2023/12/14 02:41:50;;;;;;;0.10;0.10;;;6.10;99.90;;;;;;5042637;28;20045;-69
2023/12/14 02:44:16;;;;;;;0.10;0.10;;;6.10;99.90;;;;;;5033582;28;20045;-69
2023/12/14 02:46:41;;;;;;;0.10;0.10;;;6.10;99.90;;;;;;5041684;28;20049;-69
2023/12/14 02:49:07;;;;;;;0.40;0.40;;;6.10;99.90;;;;;;5041373;28;20090;-69
2023/12/14 02:51:33;;;;;;;0.00;0.00;;;6.10;99.90;;;;;;5038889;28;20120;-69
2023/12/14 02:53:58;;;;;;;0.10;0.10;;;6.10;99.90;;;;;;5043553;28;20412;-69
2023/12/14 02:56:24;;;;;;;1.45;1.08;;;6.10;99.90;;;;;;5038916;28;20055;-69
2023/12/14 02:58:51;;;;;;;1.75;1.20;;;6.20;99.90;;;;;;5037254;28;20063;-69
2023/12/14 03:01:20;;;;;;;0.10;0.10;;;6.20;99.90;;;;;;5042144;28;20112;-69
2023/12/14 03:03:46;;;;;;;1.90;1.80;;;6.10;99.90;;;;;;5040451;28;20139;-69
2023/12/14 03:06:11;;;;;;;0.20;0.20;;;6.10;99.90;;;;;;5058621;28;20140;-69
2023/12/14 03:08:37;;;;;;;0.10;0.10;;;6.10;99.90;;;;;;5046687;28;20049;-69
2023/12/14 03:11:03;;;;;;;0.10;0.10;;;6.10;99.90;;;;;;5047237;28;20033;-69
2023/12/14 03:13:28;;;;;;;0.40;0.17;;;6.10;99.90;;;;;;5048890;28;20049;-69
2023/12/14 03:15:54;;;;;;;0.10;0.10;;;6.10;99.90;;;;;;5038010;28;20120;-69
2023/12/14 03:18:19;;;;;;;0.10;0.10;;;6.10;99.90;;;;;;5041433;28;20053;-69
2023/12/14 03:20:45;;;;;;;0.10;0.10;;;6.10;99.90;;;;;;5040226;28;20084;-69
2023/12/14 03:23:10;;;;;;;2.80;2.22;;;6.10;99.90;;;;;;5042909;28;20049;-69
2023/12/14 03:25:36;;;;;;;0.00;0.00;;;6.10;99.90;;;;;;5036066;28;20041;-69
2023/12/14 03:28:01;;;;;;;0.10;0.10;;;6.10;99.90;;;;;;5046017;28;20040;-69
2023/12/14 03:30:27;;;;;;;0.10;0.10;;;6.10;99.90;;;;;;5045008;28;20056;-69
2023/12/14 03:32:53;;;;;;;0.10;0.10;;;6.10;99.90;;;;;;5050021;28;20036;-69
2023/12/14 03:35:18;;;;;;;0.20;0.20;;;6.10;99.90;;;;;;5041487;28;20412;-69
2023/12/14 03:37:44;;;;;;;0.20;0.20;;;6.10;99.90;;;;;;5048770;28;20037;-69
2023/12/14 03:40:10;;;;;;;0.10;0.10;;;6.10;99.90;;;;;;5042739;28;20041;-69
2023/12/14 03:42:35;;;;;;;0.00;0.00;;;6.20;99.90;;;;;;5045625;28;20037;-69
2023/12/14 03:45:01;;;;;;;0.82;0.82;;;6.20;99.90;;;;;;5048409;28;20045;-69
2023/12/14 03:47:26;;;;;;;0.30;0.30;;;6.20;99.90;;;;;;5047381;28;20041;-69
2023/12/14 03:49:52;;;;;;;0.40;0.40;;;6.20;99.90;;;;;;5037578;28;20045;-69
2023/12/14 03:52:18;;;;;;;0.20;0.20;;;6.20;99.90;;;;;;5045851;28;20068;-69
2023/12/14 03:54:43;;;;;;;0.20;0.20;;;6.20;99.90;;;;;;5046560;28;20044;-69
2023/12/14 03:57:09;;;;;;;0.20;0.20;;;6.20;99.90;;;;;;5046552;28;20053;-69
2023/12/14 03:59:39;;;;;;;0.10;0.10;;;6.20;99.90;;;;;;5038845;28;20068;-69
2023/12/14 04:02:04;;;;;;;0.10;0.10;;;6.20;99.90;;;;;;5046053;28;20132;-69
2023/12/14 04:04:30;;;;;;;0.45;0.45;;;6.20;99.90;;;;;;5048163;28;20128;-69
2023/12/14 04:06:55;;;;;;;0.45;0.45;;;6.20;99.90;;;;;;5043444;28;20488;-69
2023/12/14 04:09:21;;;;;;;0.60;0.60;;;6.20;99.90;;;;;;5038687;28;20057;-69
2023/12/14 04:11:46;;;;;;;0.20;0.20;;;6.20;99.90;;;;;;5046827;28;20088;-69
2023/12/14 04:14:12;;;;;;;0.35;0.25;;;6.20;99.90;;;;;;5038872;28;20056;-69
2023/12/14 04:16:37;;;;;;;0.10;0.10;;;6.20;99.90;;;;;;5042883;28;20540;-69
2023/12/14 04:19:09;;;;;;;0.10;0.10;;;6.20;99.90;;;;;;5030582;28;20037;-69
2023/12/14 04:21:35;;;;;;;0.70;0.70;;;6.20;99.90;;;;;;5034490;28;20512;-69
2023/12/14 04:24:01;;;;;;;0.00;0.00;;;6.20;99.90;;;;;;5058744;28;20036;-69
2023/12/14 04:26:27;;;;;;;0.17;0.17;;;6.20;99.90;;;;;;5046418;28;20045;-69
2023/12/14 04:28:53;;;;;;;0.10;0.10;;;6.20;99.90;;;;;;5053072;28;20072;-69
2023/12/14 04:31:19;;;;;;;3.03;1.65;;;6.20;99.90;;;;;;5042399;28;20067;-69
2023/12/14 04:33:44;;;;;;;0.10;0.10;;;6.20;99.90;;;;;;5044519;28;20037;-69
2023/12/14 04:36:10;;;;;;;0.20;0.20;;;6.20;99.90;;;;;;5048249;28;20043;-69
2023/12/14 04:38:35;;;;;;;0.10;0.10;;;6.20;99.90;;;;;;5031585;28;20432;-69
2023/12/14 04:41:01;;;;;;;0.10;0.10;;;6.20;99.90;;;;;;5041394;28;20053;-69
2023/12/14 04:43:29;;;;;;;0.10;0.10;;;6.20;99.90;;;;;;5042035;28;20047;-69
2023/12/14 04:45:55;;;;;;;0.10;0.10;;;6.20;99.90;;;;;;5039860;28;20124;-69
2023/12/14 04:48:21;;;;;;;0.10;0.10;;;6.20;99.90;;;;;;5039458;28;20120;-69
2023/12/14 04:50:46;;;;;;;0.20;0.20;;;6.20;99.90;;;;;;5041696;28;21866;-69
2023/12/14 04:53:12;;;;;;;0.10;0.10;;;6.20;99.90;;;;;;5038158;28;20465;-69
2023/12/14 04:55:37;;;;;;;0.10;0.10;;;6.20;99.90;;;;;;5039975;28;20068;-69
2023/12/14 04:58:03;;;;;;;0.10;0.10;;;6.20;99.90;;;;;;5043889;28;20045;-69
2023/12/14 05:00:28;;;;;;;0.40;0.40;;;6.20;99.90;;;;;;5038836;28;20095;-69
2023/12/14 05:02:54;;;;;;;0.10;0.10;;;6.20;99.90;;;;;;5059843;28;20127;-69
2023/12/14 05:05:20;;;;;;;0.20;0.20;;;6.20;99.90;;;;;;5033597;28;20050;-69
2023/12/14 05:07:45;;;;;;;0.10;0.10;;;6.20;99.90;;;;;;5032215;28;20458;-69
2023/12/14 05:10:11;;;;;;;0.10;0.10;;;6.10;99.90;;;;;;5043923;28;20071;-69
2023/12/14 05:12:37;;;;;;;0.60;0.60;;;6.10;99.90;;;;;;5046464;28;20492;-69
2023/12/14 05:15:05;;;;;;;0.10;0.10;;;6.20;99.90;;;;;;5033031;28;20037;-69
2023/12/14 05:17:30;;;;;;;0.10;0.10;;;6.10;99.90;;;;;;5036457;28;20059;-69
2023/12/14 05:19:56;;;;;;;0.10;0.10;;;6.10;99.90;;;;;;5047495;28;20467;-69
2023/12/14 05:22:21;;;;;;;0.32;0.32;;;6.10;99.90;;;;;;5037817;28;20079;-69
2023/12/14 05:24:47;;;;;;;0.10;0.10;;;6.10;99.90;;;;;;5046618;28;20212;-69
2023/12/14 05:27:14;;;;;;;0.13;0.13;;;6.20;99.90;;;;;;5045948;28;20040;-69
2023/12/14 05:29:39;;;;;;;0.10;0.10;;;6.20;99.90;;;;;;5045418;28;20064;-69
2023/12/14 05:32:05;;;;;;;2.47;2.28;;;6.10;99.90;;;;;;5032316;28;20037;-70
2023/12/14 05:34:31;;;;;;;0.57;0.57;;;6.20;99.90;;;;;;5045121;28;20392;-69
2023/12/14 05:36:56;;;;;;;0.10;0.10;;;6.10;99.90;;;;;;5043983;28;20040;-69
2023/12/14 05:39:22;;;;;;;0.35;0.35;;;6.10;99.90;;;;;;5044655;28;20119;-69
2023/12/14 05:41:48;;;;;;;0.10;0.10;;;6.10;99.90;;;;;;5034993;28;20052;-69
2023/12/14 05:44:13;;;;;;;0.13;0.13;;;6.10;99.90;;;;;;5044399;28;20542;-69
2023/12/14 05:46:39;;;;;;;0.20;0.20;;;6.10;99.90;;;;;;5044356;28;20404;-69
2023/12/14 05:49:04;;;;;;;0.47;0.47;;;6.20;99.90;;;;;;5039050;28;20029;-69
2023/12/14 05:51:31;;;;;;;0.38;0.38;;;6.20;99.90;;;;;;5044360;28;20037;-69
2023/12/14 05:53:58;;;;;;;0.30;0.30;;;6.20;99.90;;;;;;5045553;28;20056;-69
2023/12/14 05:56:25;;;;;;;0.10;0.10;;;6.20;99.90;;;;;;5036155;28;20416;-69
2023/12/14 05:58:51;;;;;;;0.30;0.30;;;6.20;99.90;;;;;;5042630;28;20045;-69
2023/12/14 06:01:17;;;;;;;0.10;0.10;;;6.20;99.90;;;;;;5040368;28;20049;-69
2023/12/14 06:03:44;;;;;;;2.25;1.83;;;6.10;99.90;;;;;;5039814;28;20037;-69
2023/12/14 06:06:09;;;;;;;0.08;0.08;;;6.20;99.90;;;;;;5048358;28;20423;-69
2023/12/14 06:08:35;;;;;;;0.10;0.10;;;6.10;99.90;;;;;;5041445;28;20047;-69
2023/12/14 06:11:01;;;;;;;0.38;0.38;;;6.20;99.90;;;;;;5051643;28;20041;-68
2023/12/14 06:13:26;;;;;;;0.32;0.32;;;6.10;99.90;;;;;;5038489;28;20459;-69
2023/12/14 06:15:52;;;;;;;0.25;0.25;;;6.20;99.90;;;;;;5038616;28;20063;-69
2023/12/14 06:18:17;;;;;;;0.20;0.20;;;6.10;99.90;;;;;;5048730;28;20436;-69
2023/12/14 06:20:43;;;;;;;0.77;0.77;;;6.20;99.90;;;;;;5041461;28;20098;-69
2023/12/14 06:23:08;;;;;;;0.45;0.45;;;6.10;99.90;;;;;;5045695;28;20060;-69
2023/12/14 06:25:34;;;;;;;0.13;0.13;;;6.10;99.90;;;;;;5046246;28;20041;-69
2023/12/14 06:27:59;;;;;;;0.10;0.10;;;6.20;99.90;;;;;;5049637;28;20045;-69
2023/12/14 06:30:25;;;;;;;0.10;0.10;;;6.20;99.90;;;;;;5049431;28;20041;-69
2023/12/14 06:32:51;;;;;;;0.50;0.50;;;6.20;99.90;;;;;;5043798;28;20411;-69
2023/12/14 06:35:16;;;;;;;0.10;0.10;;;6.20;99.90;;;;;;5044561;28;20064;-69
2023/12/14 06:37:42;;;;;;;0.20;0.20;;;6.20;99.90;;;;;;5045792;28;20057;-69
2023/12/14 06:40:08;;;;;;;0.45;0.45;;;6.20;99.90;;;;;;5042433;28;20053;-69
2023/12/14 06:42:34;;;;;;;0.17;0.17;;;6.20;99.90;;;;;;5037368;28;20128;-69
2023/12/14 06:45:02;;;;;;;0.82;0.82;;;6.10;99.90;;;;;;5044454;28;20128;-69
2023/12/14 06:47:28;;;;;;;0.20;0.20;;;6.20;99.90;;;;;;5041797;28;20129;-69
2023/12/14 06:49:53;;;;;;;0.10;0.10;;;6.20;99.90;;;;;;5048674;28;20127;-69
2023/12/14 06:52:19;;;;;;;0.20;0.20;;;6.20;99.90;;;;;;5043230;28;20076;-69
2023/12/14 06:54:45;;;;;;;0.80;0.68;;;6.20;99.90;;;;;;5043599;28;20043;-69
2023/12/14 06:57:10;;;;;;;0.10;0.10;;;6.20;99.90;;;;;;5039740;28;20504;-69
2023/12/14 06:59:36;;;;;;;0.43;0.43;;;6.20;99.90;;;;;;5043749;28;20067;-69
2023/12/14 07:02:01;;;;;;;0.10;0.10;;;6.20;99.90;;;;;;5045089;28;20115;-69
2023/12/14 07:04:27;;;;;;;1.17;1.05;;;6.20;99.90;;;;;;5039809;28;20041;-69
2023/12/14 07:06:53;;;;;;;0.55;0.55;;;6.20;99.90;;;;;;5044525;28;20539;-69
2023/12/14 07:09:19;;;;;;;0.43;0.43;;;6.20;99.90;;;;;;5042298;28;20096;-69
2023/12/14 07:11:44;;;;;;;0.95;0.95;;;6.20;99.90;;;;;;5042712;28;20049;-69
2023/12/14 07:14:10;;;;;;;1.05;1.05;;;6.20;99.90;;;;;;5045286;28;20467;-69
2023/12/14 07:16:36;;;;;;;1.10;1.10;;;6.20;99.90;;;;;;5049118;28;20496;-69
2023/12/14 07:19:02;;;;;;;0.10;0.10;;;6.20;99.90;;;;;;5041715;28;20049;-69
2023/12/14 07:21:27;;;;;;;0.15;0.15;;;6.20;99.90;;;;;;5047733;28;20064;-69
2023/12/14 07:23:53;;;;;;;0.10;0.10;;;6.30;99.90;;;;;;5043443;28;20045;-69
2023/12/14 07:26:18;;;;;;;1.27;0.60;;;6.20;99.90;;;;;;5032834;28;20053;-69
2023/12/14 07:28:44;;;;;;;0.20;0.20;;;6.20;99.90;;;;;;5047183;28;20044;-69
2023/12/14 07:31:09;;;;;;;0.10;0.10;;;6.30;99.90;;;;;;5040963;28;20048;-69
2023/12/14 07:33:35;;;;;;;0.10;0.10;;;6.30;99.90;;;;;;5043146;28;20373;-69
2023/12/14 07:36:01;;;;;;;2.38;1.23;;;6.20;99.90;;;;;;5041375;28;20049;-69
2023/12/14 07:38:27;;;;;;;0.10;0.10;;;6.30;99.90;;;;;;5042384;28;20444;-69
2023/12/14 07:40:53;;;;;;;0.20;0.20;;;6.30;99.90;;;;;;5044512;28;20128;-69
2023/12/14 07:43:18;;;;;;;0.10;0.10;;;6.30;99.90;;;;;;5046636;28;20052;-69
2023/12/14 07:45:45;;;;;;;0.10;0.10;;;6.20;99.90;;;;;;5042070;28;20041;-69
2023/12/14 07:48:11;;;;;;;0.40;0.40;;;6.20;99.90;;;;;;5043559;28;20052;-69
2023/12/14 07:50:36;;;;;;;1.30;1.20;;;6.20;99.90;;;;;;5046331;28;20044;-69
2023/12/14 07:53:02;;;;;;;0.10;0.10;;;6.20;99.90;;;;;;5040256;28;20500;-69
2023/12/14 07:55:28;;;;;;;0.90;0.90;;;6.30;99.90;;;;;;5040739;28;20044;-69
2023/12/14 07:57:54;;;;;;;0.10;0.10;;;6.20;99.90;;;;;;5045428;28;20062;-69
2023/12/14 08:00:20;;;;;;;0.65;0.65;;;6.20;99.90;;;;;;5037636;28;20124;-69
2023/12/14 08:02:45;;;;;;;0.10;0.10;;;6.20;99.90;;;;;;5046854;28;20049;-69
2023/12/14 08:05:11;;;;;;;0.10;0.10;;;6.30;99.90;;;;;;5038967;28;20053;-69
2023/12/14 08:07:37;;;;;;;0.10;0.10;;;6.30;99.90;;;;;;5035506;28;20127;-69
2023/12/14 08:10:03;;;;;;;0.10;0.10;;;6.30;99.90;;;;;;5047579;28;20042;-69
2023/12/14 08:12:28;;;;;;;0.88;0.85;;;6.30;99.90;;;;;;5045119;28;20096;-69
2023/12/14 08:14:54;;;;;;;0.10;0.10;;;6.30;99.90;;;;;;5040781;28;20503;-69
2023/12/14 08:17:20;;;;;;;0.10;0.10;;;6.30;99.90;;;;;;5045932;28;20544;-69
2023/12/14 08:19:46;;;;;;;1.35;0.25;;;6.30;99.90;;;;;;5045926;28;20041;-69
2023/12/14 08:22:15;;;;;;;0.10;0.10;;;6.30;99.90;;;;;;5038171;28;20107;-69
2023/12/14 08:24:41;;;;;;;0.68;0.57;;;6.30;99.90;;;;;;5041401;28;20095;-69
2023/12/14 08:27:06;;;;;;;0.10;0.10;;;6.30;99.90;;;;;;5039773;28;20045;-69
2023/12/14 08:29:32;;;;;;;0.10;0.10;;;6.40;99.90;;;;;;5047724;28;20037;-69
2023/12/14 08:31:59;;;;;;;0.10;0.10;;;6.40;99.90;;;;;;5045482;28;20068;-69
2023/12/14 08:34:25;;;;;;;0.20;0.20;;;6.40;99.90;;;;;;5040547;28;20045;-69
2023/12/14 08:36:51;;;;;;;0.10;0.10;;;6.40;99.90;;;;;;5032870;28;20087;-69
2023/12/14 08:39:16;;;;;;;0.10;0.10;;;6.40;99.90;;;;;;5038622;28;20476;-69
2023/12/14 08:41:42;;;;;;;0.63;0.63;;;6.30;99.90;;;;;;5036090;28;20542;-69
2023/12/14 08:44:08;;;;;;;0.22;0.22;;;6.40;99.90;;;;;;5037517;28;20090;-69
2023/12/14 08:46:46;;;;;;;0.10;0.10;;;6.40;99.90;;;;;;5028728;28;20374;-69
2023/12/14 08:49:13;;;;;;;0.10;0.10;;;6.40;99.90;;;;;;5034551;28;20040;-69
2023/12/14 08:51:39;;;;;;;0.68;0.50;;;6.40;99.90;;;;;;5043475;28;20742;-69
2023/12/14 08:54:05;;;;;;;0.20;0.20;;;6.40;99.90;;;;;;5043116;28;20052;-69
2023/12/14 08:56:31;;;;;;;3.40;1.33;;;6.40;99.90;;;;;;5036549;28;20076;-69
2023/12/14 08:58:59;;;;;;;0.10;0.10;;;6.40;99.90;;;;;;5040751;28;20472;-70
2023/12/14 09:01:24;;;;;;;0.20;0.20;;;6.40;99.90;;;;;;5038768;28;20041;-70
2023/12/14 09:03:50;;;;;;;1.38;1.27;;;6.50;99.90;;;;;;5040675;28;20087;-69
2023/12/14 09:06:17;;;;;;;9.95;2.45;;;6.50;99.90;;;;;;5042009;28;20291;-69
2023/12/14 09:08:43;;;;;;;0.10;0.10;;;6.50;99.90;;;;;;5044376;28;20557;-69
2023/12/14 09:11:09;;;;;;;0.82;0.82;;;6.50;99.90;;;;;;5040566;28;20041;-69
2023/12/14 09:13:34;;;;;;;0.10;0.10;;;6.50;99.90;;;;;;5036213;28;20029;-69
2023/12/14 09:16:00;;;;;;;0.43;0.43;;;6.40;99.90;;;;;;5040118;28;20049;-70
2023/12/14 09:18:25;;;;;;;0.22;0.22;;;6.40;99.90;;;;;;5044192;28;20056;-69
2023/12/14 09:20:51;;;;;;;2.50;0.88;;;6.30;99.90;;;;;;5041520;28;20136;-69
2023/12/14 09:23:17;;;;;;;0.57;0.57;;;6.30;99.90;;;;;;5041804;28;20477;-69
2023/12/14 09:25:42;;;;;;;0.63;0.63;;;6.30;99.90;;;;;;5036459;28;20377;-69
2023/12/14 09:28:08;;;;;;;0.25;0.25;;;6.20;99.90;;;;;;5041535;28;20057;-69
2023/12/14 09:30:33;;;;;;;0.35;0.35;;;6.20;99.90;;;;;;5033983;28;20041;-69
2023/12/14 09:32:59;;;;;;;0.35;0.35;;;6.20;99.90;;;;;;5039909;28;20087;-70
2023/12/14 09:35:25;;;;;;;1.48;1.38;;;6.20;99.90;;;;;;5040526;28;20662;-70
2023/12/14 09:37:50;;;;;;;0.20;0.20;;;6.20;99.90;;;;;;5044476;28;20049;-70
2023/12/14 09:40:18;;;;;;;0.20;0.20;;;6.20;99.90;;;;;;5033781;28;20132;-70
2023/12/14 09:42:44;;;;;;;0.10;0.10;;;6.20;99.90;;;;;;5042940;28;20045;-70
2023/12/14 09:45:11;;;;;;;0.28;0.28;;;6.20;99.90;;;;;;5042007;28;20060;-69
2023/12/14 09:47:37;;;;;;;0.38;0.38;;;6.20;99.90;;;;;;5037687;28;20128;-70
2023/12/14 09:50:03;;;;;;;0.30;0.30;;;6.30;99.90;;;;;;5043484;28;20053;-68
2023/12/14 09:52:29;;;;;;;0.57;0.57;;;6.40;99.90;;;;;;5042788;28;20439;-69
2023/12/14 09:54:55;;;;;;;0.70;0.70;;;6.40;99.90;;;;;;5046082;28;20045;-69
2023/12/14 09:57:21;;;;;;;0.57;0.57;;;6.40;99.90;;;;;;5050399;28;20411;-69
2023/12/14 09:59:55;;;;;;;0.20;0.20;;;6.40;99.90;;;;;;5044352;28;20049;-69
2023/12/14 10:02:26;;;;;;;0.10;0.10;;;6.50;99.90;;;;;;5041657;28;20052;-69
2023/12/14 10:04:52;;;;;;;0.20;0.20;;;6.60;99.90;;;;;;5036775;28;20096;-69
2023/12/14 10:07:18;;;;;;;0.63;0.63;;;6.70;99.90;;;;;;5045952;28;20072;-69
2023/12/14 10:09:44;;;;;;;4.38;0.73;;;6.80;99.90;;;;;;5049013;28;20511;-69
2023/12/14 10:12:10;;;;;;;0.38;0.28;;;6.80;99.90;;;;;;5048204;28;20076;-70
2023/12/14 10:14:36;;;;;;;0.90;0.45;;;6.90;99.90;;;;;;5035067;28;20033;-69
2023/12/14 10:17:18;;;;;;;0.10;0.10;;;6.90;99.90;;;;;;5044816;28;20056;-69
2023/12/14 10:19:44;;;;;;;0.08;0.08;;;7.00;99.90;;;;;;5037434;28;20060;-69
2023/12/14 10:22:11;;;;;;;0.38;0.38;;;7.00;99.90;;;;;;5039066;28;20036;-70
2023/12/14 10:24:37;;;;;;;0.10;0.10;;;7.10;99.90;;;;;;5050349;28;20116;-70
2023/12/14 10:27:09;;;;;;;0.60;0.60;;;7.10;99.90;;;;;;5046782;28;20124;-69
2023/12/14 10:29:36;;;;;;;1.90;0.95;;;7.10;99.90;;;;;;5038437;28;20069;-69
2023/12/14 10:32:06;;;;;;;0.28;0.28;;;7.10;99.90;;;;;;5037760;28;20033;-70
2023/12/14 10:34:39;;;;;;;0.47;0.47;;;7.10;99.90;;;;;;5049054;28;20489;-69
2023/12/14 10:37:06;;;;;;;0.10;0.10;;;7.20;99.90;;;;;;5040449;28;20045;-69
2023/12/14 10:39:34;;;;;;;0.15;0.15;;;7.20;99.90;;;;;;5045498;28;20044;-69
2023/12/14 10:42:03;;;;;;;0.10;0.10;;;7.20;99.90;;;;;;5037128;28;20051;-69
2023/12/14 10:44:32;;;;;;;0.20;0.20;;;7.20;99.90;;;;;;5037636;28;20029;-70
2023/12/14 10:46:58;;;;;;;0.13;0.13;;;7.10;99.90;;;;;;5055335;28;20049;-69
2023/12/14 10:49:25;;;;;;;0.75;0.75;;;7.10;99.90;;;;;;5039241;28;20094;-70
2023/12/14 10:51:56;;;;;;;1.77;1.27;;;7.10;99.90;;;;;;5036920;28;20473;-70
2023/12/14 10:54:24;;;;;;;0.30;0.30;;;7.10;99.90;;;;;;5040130;28;20052;-69
2023/12/14 10:56:54;;;;;;;0.98;0.85;;;7.10;99.90;;;;;;5047945;28;20052;-70
2023/12/14 10:59:19;;;;;;;0.20;0.20;;;7.00;99.90;;;;;;5038600;28;20564;-68
2023/12/14 11:01:53;;;;;;;0.10;0.10;;;7.00;99.90;;;;;;5040447;28;20056;-70
2023/12/14 11:04:19;;;;;;;0.10;0.10;;;7.00;99.90;;;;;;5045257;28;20045;-69
2023/12/14 11:06:48;;;;;;;0.63;0.63;;;7.00;99.90;;;;;;5047996;28;20053;-70
2023/12/14 11:09:16;;;;;;;0.10;0.10;;;7.10;99.90;;;;;;5043718;28;20106;-70
2023/12/14 11:11:58;;;;;;;0.30;0.30;;;7.00;99.90;;;;;;5037144;28;20128;-70
2023/12/14 11:14:25;;;;;;;0.95;0.95;;;7.00;99.90;;;;;;5043957;28;20085;-70
2023/12/14 11:16:54;;;;;;;0.10;0.10;;;7.00;99.90;;;;;;5052096;28;20707;-69
2023/12/14 11:19:23;;;;;;;1.65;1.00;;;7.10;99.90;;;;;;5063294;28;20048;-70
2023/12/14 11:21:57;;;;;;;9.38;0.85;;;7.10;99.90;;;;;;5046318;28;20526;-70
2023/12/14 11:24:23;;;;;;;0.20;0.20;;;7.10;99.90;;;;;;5037288;28;20124;-70
2023/12/14 11:26:49;;;;;;;4.47;0.85;;;7.10;99.90;;;;;;5047869;28;20048;-70
2023/12/14 11:29:16;;;;;;;0.08;0.08;;;7.10;99.90;;;;;;5038920;28;20051;-70
2023/12/14 11:31:42;;;;;;;0.10;0.10;;;7.10;99.90;;;;;;5044520;28;20044;-70
2023/12/14 11:36:45;;;;;;;0.40;0.40;;;7.20;99.90;;;;;;5100852;22;20066;-69
2023/12/14 11:39:11;;;;;;;0.73;0.73;;;7.20;99.90;;;;;;5016966;28;20045;-70
2023/12/14 11:41:38;;;;;;;1.02;1.00;;;7.30;99.90;;;;;;5018219;28;20049;-70
2023/12/14 12:37:26;;;;;;;2.22;0.82;;;7.00;99.90;;;;;;4999312;28;20836;-71
2023/12/14 12:39:52;;;;;;;0.10;0.10;;;7.20;99.90;;;;;;4979060;28;20148;-70
2023/12/14 12:42:17;;;;;;;0.20;0.20;;;7.20;99.90;;;;;;4985005;28;20042;-71
2023/12/14 12:44:43;;;;;;;0.60;0.60;;;7.30;99.90;;;;;;4983412;28;20450;-70
2023/12/14 12:47:09;;;;;;;0.40;0.40;;;7.30;99.90;;;;;;4976767;28;20072;-70
2023/12/14 12:49:35;;;;;;;0.10;0.10;;;7.30;99.90;;;;;;4976050;28;20125;-71
2023/12/14 12:52:00;;;;;;;0.10;0.10;;;7.20;99.90;;;;;;4982000;28;20055;-70
2023/12/14 12:54:26;;;;;;;0.10;0.10;;;7.20;99.90;;;;;;4983820;28;20046;-70
2023/12/14 12:56:52;;;;;;;6.38;2.28;;;7.20;99.90;;;;;;4979500;28;20110;-70
2023/12/14 12:59:17;;;;;;;0.13;0.13;;;7.20;99.90;;;;;;4976401;28;20050;-70
2023/12/14 13:01:45;;;;;;;0.25;0.25;;;7.20;99.90;;;;;;4973950;28;20038;-70
2023/12/14 13:04:21;;;;;;;0.10;0.10;;;7.10;99.90;;;;;;4981446;28;20097;-70
2023/12/14 13:06:50;;;;;;;0.20;0.20;;;7.20;99.90;;;;;;4978225;28;20050;-70
2023/12/14 13:09:16;;;;;;;0.20;0.20;;;7.10;99.90;;;;;;4977929;28;20058;-70
2023/12/14 13:11:45;;;;;;;1.23;0.65;;;7.10;99.90;;;;;;4973770;28;20137;-70
2023/12/14 13:14:11;;;;;;;0.63;0.50;;;7.20;99.90;;;;;;4984446;28;20134;-70
2023/12/14 13:16:38;;;;;;;0.10;0.10;;;7.10;99.90;;;;;;4983160;28;20133;-70
2023/12/14 13:19:06;;;;;;;0.20;0.20;;;7.10;99.90;;;;;;4975345;28;20614;-71
2023/12/14 13:21:35;;;;;;;0.10;0.10;;;7.10;99.90;;;;;;4974556;28;20043;-70
2023/12/14 13:24:01;;;;;;;0.30;0.30;;;7.10;99.90;;;;;;4978452;28;20030;-69
2023/12/14 13:26:27;;;;;;;0.20;0.20;;;7.10;99.90;;;;;;4972215;28;20109;-69
2023/12/14 13:28:53;;;;;;;0.10;0.10;;;7.10;99.90;;;;;;4969795;28;20043;-70
2023/12/14 13:31:19;;;;;;;0.10;0.10;;;7.10;99.90;;;;;;4988185;28;20058;-70
2023/12/14 13:33:46;;;;;;;0.10;0.10;;;7.10;99.90;;;;;;4975804;28;20098;-70
2023/12/14 13:36:12;;;;;;;0.10;0.10;;;7.10;99.90;;;;;;4977285;28;20046;-70
2023/12/14 13:38:38;;;;;;;0.10;0.10;;;7.10;99.90;;;;;;4967137;28;20054;-70
2023/12/14 13:41:04;;;;;;;3.00;0.82;;;7.10;99.90;;;;;;4962760;28;20502;-70
2023/12/14 13:43:29;;;;;;;0.20;0.20;;;7.10;99.90;;;;;;4969854;28;20039;-70
2023/12/14 13:45:57;;;;;;;0.10;0.10;;;7.00;99.90;;;;;;4971145;28;20129;-70
2023/12/14 13:48:27;;;;;;;0.10;0.10;;;7.10;99.90;;;;;;4963776;28;20082;-70